Time;durP1;ratioP1;P1;durP2;ratioP2;P2;SDS_P1;SDS_P2;PMS_P1;PMS_P2;Temp;Humidity;BMP_temperature;BMP_pressure;BME280_temperature;BME280_humidity;BME280_pressure;Samples;Min_cycle;Max_cycle;Signal;HPM_P1;HPM_P2
2022/06/26 00:01:29;;;;;;;;;;;;;;;25.21;58.45;101216.91;5037119;28;19990;-73
2022/06/26 00:03:54;;;;;;;;;;;;;;;24.90;59.18;101223.47;5035769;28;20158;-69
2022/06/26 00:06:19;;;;;;;;;;;;;;;24.73;60.35;101228.78;5022178;28;20054;-71
2022/06/26 00:08:45;;;;;;;;;;;;;;;24.78;60.00;101231.44;5033441;28;20282;-69
2022/06/26 00:11:10;;;;;;;;;;;;;;;25.59;57.77;101233.03;5022680;28;20262;-70
2022/06/26 00:13:36;;;;;;;;;;;;;;;24.91;59.62;101231.38;5020155;28;19921;-70
2022/06/26 00:16:01;;;;;;;;;;;;;;;25.44;58.06;101225.97;5021081;28;19925;-71
2022/06/26 00:18:26;;;;;;;;;;;;;;;25.91;56.28;101229.91;5020259;28;19927;-68
2022/06/26 00:20:51;;;;;;;;;;;;;;;25.08;59.35;101241.72;5015159;28;19948;-71
2022/06/26 00:23:17;;;;;;;;;;;;;;;25.35;58.30;101240.78;5025254;28;19925;-70
2022/06/26 00:25:42;;;;;;;;;;;;;;;25.77;56.63;101240.22;5021737;28;19921;-71
2022/06/26 00:28:07;;;;;;;;;;;;;;;26.04;55.71;101235.31;5020041;28;19980;-71
2022/06/26 00:30:32;;;;;;;;;;;;;;;26.03;55.79;101227.38;5020192;28;19924;-71
2022/06/26 00:32:58;;;;;;;;;;;;;;;25.68;56.90;101231.94;5019825;28;19913;-70
2022/06/26 00:35:23;;;;;;;;;;;;;;;25.72;56.56;101227.44;5019868;28;20000;-71
2022/06/26 00:37:48;;;;;;;;;;;;;;;25.71;56.18;101223.03;5017188;28;20004;-70
2022/06/26 00:40:14;;;;;;;;;;;;;;;25.77;56.54;101213.50;5024239;28;19920;-71
2022/06/26 00:42:39;;;;;;;;;;;;;;;25.41;57.71;101212.03;5015293;28;19977;-70
2022/06/26 00:45:05;;;;;;;;;;;;;;;25.57;57.22;101207.75;5023812;28;19917;-70
2022/06/26 00:47:33;;;;;;;;;;;;;;;25.72;56.77;101212.84;5018950;28;19930;-70
2022/06/26 00:49:58;;;;;;;;;;;;;;;25.69;56.07;101200.50;5023002;28;19924;-71
2022/06/26 00:52:26;;;;;;;;;;;;;;;25.67;56.58;101205.53;5019786;28;19928;-71
2022/06/26 00:54:52;;;;;;;;;;;;;;;25.48;57.19;101204.94;5025214;28;19928;-70
2022/06/26 00:57:17;;;;;;;;;;;;;;;25.55;57.01;101213.56;5020608;28;20004;-71
2022/06/26 00:59:43;;;;;;;;;;;;;;;25.52;57.09;101211.44;5023358;28;20347;-71
2022/06/26 01:02:08;;;;;;;;;;;;;;;25.90;56.31;101220.06;5018406;28;19992;-71
2022/06/26 01:04:34;;;;;;;;;;;;;;;25.85;56.66;101228.44;5024221;28;19942;-71
2022/06/26 01:06:59;;;;;;;;;;;;;;;25.97;55.87;101231.41;5022718;28;19952;-71
2022/06/26 01:09:25;;;;;;;;;;;;;;;26.07;55.65;101231.16;5020595;28;19924;-71
2022/06/26 01:11:51;;;;;;;;;;;;;;;25.75;56.06;101243.28;5022491;28;19967;-71
2022/06/26 01:14:16;;;;;;;;;;;;;;;25.67;56.75;101252.31;5018690;28;20393;-70
2022/06/26 01:16:42;;;;;;;;;;;;;;;25.84;56.74;101254.38;5022053;28;19925;-71
2022/06/26 01:19:08;;;;;;;;;;;;;;;26.20;55.18;101256.97;5018068;28;19936;-71
2022/06/26 01:21:34;;;;;;;;;;;;;;;26.07;55.83;101258.69;5023544;28;19971;-70
2022/06/26 01:24:03;;;;;;;;;;;;;;;26.15;55.70;101257.09;5019512;28;19913;-71
2022/06/26 01:26:29;;;;;;;;;;;;;;;25.84;56.97;101265.38;5024890;28;20026;-72
2022/06/26 01:28:54;;;;;;;;;;;;;;;26.00;56.24;101263.84;5018410;28;19922;-68
2022/06/26 01:31:20;;;;;;;;;;;;;;;25.73;57.24;101266.78;5017989;28;19928;-68
2022/06/26 01:33:46;;;;;;;;;;;;;;;25.82;56.85;101273.16;5018730;28;19927;-68
2022/06/26 01:36:11;;;;;;;;;;;;;;;25.69;57.30;101277.59;5017105;28;19921;-67
2022/06/26 01:38:37;;;;;;;;;;;;;;;25.15;58.51;101289.69;5017045;28;19980;-65
2022/06/26 01:41:03;;;;;;;;;;;;;;;25.24;58.25;101295.22;5015389;28;19926;-67
2022/06/26 01:43:30;;;;;;;;;;;;;;;25.34;56.92;101289.47;5018047;28;20016;-66
2022/06/26 01:45:56;;;;;;;;;;;;;;;24.75;57.25;101293.34;5017674;28;19922;-66
2022/06/26 01:48:22;;;;;;;;;;;;;;;24.75;57.72;101287.03;5018078;28;19917;-67
2022/06/26 01:50:47;;;;;;;;;;;;;;;25.18;56.74;101288.22;5027592;28;19963;-67
2022/06/26 01:53:14;;;;;;;;;;;;;;;25.21;56.94;101282.13;5027685;28;20369;-68
2022/06/26 01:55:39;;;;;;;;;;;;;;;25.16;55.88;101280.28;5023699;28;19984;-68
2022/06/26 01:58:04;;;;;;;;;;;;;;;24.66;56.06;101283.34;5026028;28;20389;-67
2022/06/26 02:00:31;;;;;;;;;;;;;;;24.61;56.41;101281.53;5025351;28;19917;-68
2022/06/26 02:02:56;;;;;;;;;;;;;;;24.27;57.43;101290.19;5027184;28;20016;-68
2022/06/26 02:05:21;;;;;;;;;;;;;;;24.04;58.07;101279.41;5023199;28;20032;-67
2022/06/26 02:07:47;;;;;;;;;;;;;;;24.29;57.26;101278.94;5021474;28;19941;-69
2022/06/26 02:15:40;;;;;;;;;;;;;;;24.32;57.72;101276.38;5022606;28;20420;-68
2022/06/26 02:18:05;;;;;;;;;;;;;;;24.04;58.68;101282.16;5025177;28;19921;-68
2022/06/26 02:20:30;;;;;;;;;;;;;;;23.85;58.87;101290.44;5024709;28;19940;-69
2022/06/26 02:22:55;;;;;;;;;;;;;;;23.90;59.16;101276.63;5019988;28;20381;-70
2022/06/26 02:25:21;;;;;;;;;;;;;;;23.75;59.81;101262.34;5022613;28;20412;-68
2022/06/26 02:27:47;;;;;;;;;;;;;;;23.59;60.16;101277.50;5022070;28;20301;-68
2022/06/26 02:30:13;;;;;;;;;;;;;;;23.62;60.36;101280.44;5025992;28;19914;-69
2022/06/26 02:32:38;;;;;;;;;;;;;;;23.93;58.71;101277.94;5019416;28;19928;-69
2022/06/26 02:35:04;;;;;;;;;;;;;;;23.13;61.47;101278.22;5024140;28;20598;-68
2022/06/26 02:37:29;;;;;;;;;;;;;;;23.73;59.82;101281.88;5025104;28;20385;-70
2022/06/26 02:39:54;;;;;;;;;;;;;;;23.69;60.32;101278.09;5020753;28;19925;-69
2022/06/26 02:42:19;;;;;;;;;;;;;;;24.14;58.47;101271.78;5021208;28;20059;-68
2022/06/26 02:44:45;;;;;;;;;;;;;;;23.80;59.28;101274.09;5027206;28;20370;-70
2022/06/26 02:47:10;;;;;;;;;;;;;;;23.98;58.36;101270.44;5027525;28;19941;-70
2022/06/26 02:49:35;;;;;;;;;;;;;;;23.66;60.07;101267.75;5028326;28;19968;-68
2022/06/26 02:52:00;;;;;;;;;;;;;;;23.98;58.75;101267.69;5025340;28;19922;-68
2022/06/26 02:54:25;;;;;;;;;;;;;;;23.87;58.88;101268.19;5021235;28;19921;-69
2022/06/26 02:56:51;;;;;;;;;;;;;;;24.37;57.35;101269.97;5018396;28;19925;-69
2022/06/26 02:59:16;;;;;;;;;;;;;;;24.43;56.92;101266.00;5021622;28;19973;-69
2022/06/26 03:01:47;;;;;;;;;;;;;;;24.01;58.32;101261.59;5020307;28;19991;-71
2022/06/26 03:04:12;;;;;;;;;;;;;;;24.26;57.78;101268.53;5018761;28;19921;-69
2022/06/26 03:06:37;;;;;;;;;;;;;;;24.20;57.36;101258.75;5021030;28;19918;-70
2022/06/26 03:09:02;;;;;;;;;;;;;;;23.59;58.81;101264.56;5027822;28;20009;-70
2022/06/26 03:11:28;;;;;;;;;;;;;;;24.27;56.84;101250.94;5018050;28;19921;-69
2022/06/26 03:13:53;;;;;;;;;;;;;;;24.18;57.04;101242.59;5025756;28;19921;-70
2022/06/26 03:16:18;;;;;;;;;;;;;;;24.08;57.71;101242.81;5020254;28;19949;-69
2022/06/26 03:18:43;;;;;;;;;;;;;;;24.09;57.38;101241.69;5023372;28;19968;-70
2022/06/26 03:21:08;;;;;;;;;;;;;;;24.12;57.20;101238.31;5021074;28;20360;-70
2022/06/26 03:26:18;;;;;;;;;;;;;;;24.01;57.54;101238.81;5025760;28;19928;-71
2022/06/26 03:28:43;;;;;;;;;;;;;;;24.03;57.68;101240.16;5026090;28;20011;-71
2022/06/26 03:31:08;;;;;;;;;;;;;;;24.19;57.12;101238.75;5022474;28;19922;-70
2022/06/26 03:33:34;;;;;;;;;;;;;;;24.06;57.19;101245.03;5024007;28;19964;-69
2022/06/26 03:35:59;;;;;;;;;;;;;;;24.13;57.01;101256.44;5023497;28;19917;-70
2022/06/26 03:38:25;;;;;;;;;;;;;;;24.23;56.64;101267.22;5026500;28;19991;-69
2022/06/26 03:40:50;;;;;;;;;;;;;;;23.99;57.18;101279.47;5021510;28;19992;-70
2022/06/26 03:43:15;;;;;;;;;;;;;;;23.86;58.17;101274.78;5019401;28;19921;-69
2022/06/26 03:45:41;;;;;;;;;;;;;;;24.23;56.49;101280.16;5022013;28;20324;-69
2022/06/26 03:48:06;;;;;;;;;;;;;;;24.16;56.72;101293.44;5024110;28;19940;-69
2022/06/26 03:50:32;;;;;;;;;;;;;;;23.83;57.58;101300.09;5023162;28;19932;-70
2022/06/26 03:52:57;;;;;;;;;;;;;;;23.72;57.90;101298.66;5020225;28;19925;-68
2022/06/26 03:55:22;;;;;;;;;;;;;;;23.81;58.11;101303.16;5021197;28;20302;-70
2022/06/26 03:57:47;;;;;;;;;;;;;;;24.05;56.79;101317.56;5026019;28;20431;-69
2022/06/26 04:00:14;;;;;;;;;;;;;;;24.18;56.67;101319.50;5020408;28;19985;-69
2022/06/26 04:02:40;;;;;;;;;;;;;;;24.02;57.20;101322.81;5024543;28;20351;-69
2022/06/26 04:05:06;;;;;;;;;;;;;;;23.76;58.21;101330.69;5024319;28;19983;-69
2022/06/26 04:07:31;;;;;;;;;;;;;;;23.92;57.92;101340.28;5025263;28;19925;-69
2022/06/26 04:09:57;;;;;;;;;;;;;;;23.96;57.53;101337.75;5023422;28;19922;-69
2022/06/26 04:12:22;;;;;;;;;;;;;;;24.03;57.31;101336.28;5027431;28;19917;-68
2022/06/26 04:14:47;;;;;;;;;;;;;;;24.02;57.54;101336.56;5024040;28;20404;-68
2022/06/26 04:17:13;;;;;;;;;;;;;;;23.72;58.29;101350.81;5019228;28;20425;-68
2022/06/26 04:19:38;;;;;;;;;;;;;;;24.01;57.42;101349.47;5011906;28;20393;-69
2022/06/26 04:22:04;;;;;;;;;;;;;;;23.80;58.12;101344.63;5028702;28;19952;-69
2022/06/26 04:24:29;;;;;;;;;;;;;;;24.19;56.67;101342.28;5013701;28;20000;-69
2022/06/26 04:26:54;;;;;;;;;;;;;;;24.08;57.13;101343.59;5025096;28;20263;-69
2022/06/26 04:29:19;;;;;;;;;;;;;;;24.07;57.46;101351.03;5018959;28;19929;-68
2022/06/26 04:31:45;;;;;;;;;;;;;;;23.80;57.97;101353.69;5019852;28;19921;-70
2022/06/26 04:34:10;;;;;;;;;;;;;;;23.77;57.63;101365.25;5024163;28;20297;-71
2022/06/26 04:36:36;;;;;;;;;;;;;;;23.96;57.33;101373.47;5024798;28;19917;-70
2022/06/26 04:39:02;;;;;;;;;;;;;;;23.36;58.89;101362.34;5022834;28;19913;-70
2022/06/26 04:41:36;;;;;;;;;;;;;;;23.59;58.15;101363.34;5019519;28;20420;-69
2022/06/26 04:44:03;;;;;;;;;;;;;;;23.56;58.54;101377.69;5020153;28;19922;-68
2022/06/26 04:46:28;;;;;;;;;;;;;;;23.36;59.25;101397.19;5007003;28;19960;-69
2022/06/26 04:48:53;;;;;;;;;;;;;;;23.30;58.89;101385.44;5018266;28;20011;-69
2022/06/26 04:51:18;;;;;;;;;;;;;;;23.10;59.08;101376.69;5020888;28;19914;-70
2022/06/26 04:53:44;;;;;;;;;;;;;;;23.16;59.18;101376.31;5020004;28;19929;-69
2022/06/26 04:56:09;;;;;;;;;;;;;;;23.31;58.80;101389.03;5024537;28;19936;-70
2022/06/26 04:58:34;;;;;;;;;;;;;;;22.69;59.88;101376.41;5019037;28;20417;-68
2022/06/26 05:00:59;;;;;;;;;;;;;;;23.07;59.28;101380.03;5019169;28;19983;-70
2022/06/26 05:03:25;;;;;;;;;;;;;;;22.91;59.55;101382.16;5025704;28;19917;-70
2022/06/26 05:05:50;;;;;;;;;;;;;;;22.87;59.11;101389.31;5018962;28;19928;-70
2022/06/26 05:08:15;;;;;;;;;;;;;;;22.99;59.41;101402.59;5019049;28;19976;-71
2022/06/26 05:10:40;;;;;;;;;;;;;;;23.20;58.59;101398.47;5017497;28;20609;-69
2022/06/26 05:13:06;;;;;;;;;;;;;;;22.63;60.39;101403.03;5018637;28;20176;-69
2022/06/26 05:15:31;;;;;;;;;;;;;;;22.79;59.63;101395.47;5018484;28;19964;-69
2022/06/26 05:17:57;;;;;;;;;;;;;;;22.90;59.17;101396.94;5019370;28;19953;-70
2022/06/26 05:20:22;;;;;;;;;;;;;;;22.41;60.35;101390.91;5024301;28;20012;-68
2022/06/26 05:22:47;;;;;;;;;;;;;;;22.78;59.11;101402.03;5022438;28;19925;-70
2022/06/26 05:25:12;;;;;;;;;;;;;;;22.99;59.26;101403.44;5017507;28;19928;-70
2022/06/26 05:27:38;;;;;;;;;;;;;;;23.02;58.81;101411.06;5020666;28;20361;-70
2022/06/26 05:30:04;;;;;;;;;;;;;;;23.34;58.05;101416.69;5014833;28;19988;-70
2022/06/26 05:32:29;;;;;;;;;;;;;;;22.88;59.12;101412.09;5022791;28;19999;-69
2022/06/26 05:34:54;;;;;;;;;;;;;;;23.15;58.80;101418.59;5012728;28;20366;-68
2022/06/26 05:37:19;;;;;;;;;;;;;;;23.13;58.16;101423.53;5012624;28;19921;-70
2022/06/26 05:39:45;;;;;;;;;;;;;;;22.53;60.29;101426.97;5016943;28;19917;-69
2022/06/26 05:42:10;;;;;;;;;;;;;;;22.72;60.20;101432.56;5018116;28;19927;-72
2022/06/26 05:44:35;;;;;;;;;;;;;;;22.81;59.56;101433.53;5021093;28;20024;-70
2022/06/26 05:47:01;;;;;;;;;;;;;;;22.14;60.76;101440.75;5020318;28;20381;-72
2022/06/26 05:49:27;;;;;;;;;;;;;;;22.69;59.50;101437.50;5028348;28;19946;-72
2022/06/26 05:51:53;;;;;;;;;;;;;;;21.95;61.28;101436.28;5018816;28;19921;-70
2022/06/26 05:54:18;;;;;;;;;;;;;;;21.88;61.31;101442.06;5012759;28;19918;-70
2022/06/26 05:56:43;;;;;;;;;;;;;;;22.08;61.00;101441.91;5018479;28;20027;-71
2022/06/26 05:59:09;;;;;;;;;;;;;;;22.72;58.94;101449.00;5024749;28;20288;-73
2022/06/26 06:01:34;;;;;;;;;;;;;;;22.51;58.79;101451.91;5023045;28;19971;-72
2022/06/26 06:03:59;;;;;;;;;;;;;;;22.49;58.60;101456.03;5021447;28;19928;-71
2022/06/26 06:06:24;;;;;;;;;;;;;;;22.79;57.35;101453.00;5020065;28;20087;-72
2022/06/26 06:08:50;;;;;;;;;;;;;;;22.66;57.86;101467.41;5017532;28;19928;-71
2022/06/26 06:11:15;;;;;;;;;;;;;;;22.58;58.75;101465.31;5017861;28;19976;-71
2022/06/26 06:13:40;;;;;;;;;;;;;;;22.51;58.37;101471.09;5021863;28;20423;-70
2022/06/26 06:16:06;;;;;;;;;;;;;;;22.70;57.97;101479.44;5021755;28;19921;-71
2022/06/26 06:18:33;;;;;;;;;;;;;;;22.66;57.94;101484.66;5017609;28;20401;-71
2022/06/26 06:20:58;;;;;;;;;;;;;;;22.59;58.04;101486.09;5020012;28;19929;-71
2022/06/26 06:23:23;;;;;;;;;;;;;;;22.66;58.27;101490.13;5018176;28;20290;-70
2022/06/26 06:25:49;;;;;;;;;;;;;;;23.16;56.63;101487.94;5024295;28;20355;-71
2022/06/26 06:28:14;;;;;;;;;;;;;;;22.83;57.55;101489.69;5019536;28;20405;-71
2022/06/26 06:30:39;;;;;;;;;;;;;;;22.88;58.08;101478.66;5027429;28;19960;-71
2022/06/26 06:33:04;;;;;;;;;;;;;;;22.69;58.45;101489.56;5026379;28;20350;-70
2022/06/26 06:35:30;;;;;;;;;;;;;;;23.40;56.14;101499.72;5038035;28;19928;-71
2022/06/26 06:37:55;;;;;;;;;;;;;;;23.26;56.77;101501.53;5037377;28;19928;-69
2022/06/26 06:40:20;;;;;;;;;;;;;;;23.53;56.69;101507.22;5039831;28;19921;-71
2022/06/26 06:42:46;;;;;;;;;;;;;;;22.88;59.18;101503.31;5039379;28;19947;-71
2022/06/26 06:45:11;;;;;;;;;;;;;;;23.06;58.53;101508.06;5041663;28;20004;-71
2022/06/26 06:47:37;;;;;;;;;;;;;;;23.51;57.04;101510.28;5023002;28;19928;-72
2022/06/26 06:50:02;;;;;;;;;;;;;;;22.95;58.08;101508.47;5038901;28;19963;-71
2022/06/26 06:52:28;;;;;;;;;;;;;;;22.99;57.60;101515.84;5039555;28;20454;-72
2022/06/26 06:54:53;;;;;;;;;;;;;;;22.73;58.05;101521.84;5039444;28;19921;-71
2022/06/26 06:57:18;;;;;;;;;;;;;;;22.93;57.65;101522.47;5042317;28;19963;-71
2022/06/26 06:59:43;;;;;;;;;;;;;;;23.80;55.74;101532.13;5039200;28;19975;-70
2022/06/26 07:02:09;;;;;;;;;;;;;;;23.32;56.75;101533.28;5034208;28;19936;-70
2022/06/26 07:04:34;;;;;;;;;;;;;;;23.22;55.51;101547.91;5034604;28;19967;-71
2022/06/26 07:07:02;;;;;;;;;;;;;;;23.37;54.54;101541.47;5037721;28;20372;-71
2022/06/26 07:09:28;;;;;;;;;;;;;;;22.62;55.40;101549.34;5035474;28;20061;-69
2022/06/26 07:11:53;;;;;;;;;;;;;;;23.04;54.72;101553.31;5035705;28;20003;-70
2022/06/26 07:14:18;;;;;;;;;;;;;;;23.11;55.09;101562.88;5035571;28;19930;-70
2022/06/26 07:16:44;;;;;;;;;;;;;;;23.21;55.81;101575.66;5032807;28;20381;-71
2022/06/26 07:19:09;;;;;;;;;;;;;;;23.05;55.43;101568.69;5037901;28;19921;-71
2022/06/26 07:21:34;;;;;;;;;;;;;;;23.14;55.26;101572.41;5021246;28;19929;-71
2022/06/26 07:23:59;;;;;;;;;;;;;;;24.02;52.69;101564.47;5041883;28;19996;-71
2022/06/26 07:26:25;;;;;;;;;;;;;;;23.64;53.38;101557.31;5042323;28;19921;-70
2022/06/26 07:28:50;;;;;;;;;;;;;;;23.94;51.77;101559.66;5039469;28;20003;-71
2022/06/26 07:31:15;;;;;;;;;;;;;;;24.33;51.87;101560.97;5036468;28;19921;-71
2022/06/26 07:36:24;;;;;;;;;;;;;;;23.93;52.49;101555.25;5033735;28;19920;-72
2022/06/26 07:38:49;;;;;;;;;;;;;;;24.73;50.19;101562.25;5032811;28;19921;-71
2022/06/26 07:41:15;;;;;;;;;;;;;;;24.26;49.96;101556.97;5038519;28;19929;-71
2022/06/26 07:43:40;;;;;;;;;;;;;;;24.02;49.77;101556.22;5037332;28;19922;-72
2022/06/26 07:46:05;;;;;;;;;;;;;;;24.29;49.36;101550.91;5037144;28;19921;-71
2022/06/26 07:48:32;;;;;;;;;;;;;;;24.47;49.70;101557.47;5035589;28;19994;-72
2022/06/26 07:50:57;;;;;;;;;;;;;;;24.44;49.73;101569.88;5037956;28;19920;-72
2022/06/26 07:53:22;;;;;;;;;;;;;;;24.56;49.25;101572.97;5038999;28;20300;-72
2022/06/26 07:55:48;;;;;;;;;;;;;;;25.14;47.69;101571.38;5035424;28;19999;-73
2022/06/26 07:58:13;;;;;;;;;;;;;;;25.07;47.78;101584.72;5039375;28;20005;-71
2022/06/26 08:00:38;;;;;;;;;;;;;;;25.33;47.77;101590.56;5037227;28;20377;-70
2022/06/26 08:03:04;;;;;;;;;;;;;;;25.79;47.44;101591.25;5026090;28;19925;-69
2022/06/26 08:05:30;;;;;;;;;;;;;;;25.70;46.72;101593.13;5027565;28;20007;-68
2022/06/26 08:07:55;;;;;;;;;;;;;;;24.53;48.18;101603.00;5026982;28;20051;-70
2022/06/26 08:10:20;;;;;;;;;;;;;;;25.11;46.43;101602.25;5024950;28;20393;-69
2022/06/26 08:12:45;;;;;;;;;;;;;;;25.91;45.65;101607.25;5025500;28;20361;-70
2022/06/26 08:15:11;;;;;;;;;;;;;;;24.83;47.89;101605.25;5026272;28;19952;-71
2022/06/26 08:17:36;;;;;;;;;;;;;;;25.82;46.02;101595.34;5013491;28;19925;-69
2022/06/26 08:20:01;;;;;;;;;;;;;;;25.67;45.36;101604.75;5024177;28;19937;-70
2022/06/26 08:22:27;;;;;;;;;;;;;;;24.87;46.97;101607.09;5020721;28;20007;-70
2022/06/26 08:24:52;;;;;;;;;;;;;;;25.78;44.58;101610.84;5023962;28;19996;-71
2022/06/26 08:27:17;;;;;;;;;;;;;;;25.40;45.67;101612.19;5018042;28;19917;-71
2022/06/26 08:29:43;;;;;;;;;;;;;;;25.74;44.74;101607.09;5027102;28;20039;-70
2022/06/26 08:32:08;;;;;;;;;;;;;;;25.94;43.67;101606.66;5021608;28;19928;-72
2022/06/26 08:34:33;;;;;;;;;;;;;;;25.72;43.64;101603.81;5034471;28;20015;-70
2022/06/26 08:36:59;;;;;;;;;;;;;;;25.89;42.96;101607.56;5027824;28;19996;-72
2022/06/26 08:39:24;;;;;;;;;;;;;;;26.70;41.57;101608.44;5016378;28;20562;-63
2022/06/26 08:41:51;;;;;;;;;;;;;;;26.53;41.14;101605.56;5033880;28;20024;-63
2022/06/26 08:44:16;;;;;;;;;;;;;;;26.49;41.96;101613.66;5027831;28;19986;-62
2022/06/26 08:46:43;;;;;;;;;;;;;;;25.92;42.39;101611.66;5035796;28;19921;-63
2022/06/26 08:49:14;;;;;;;;;;;;;;;26.60;42.14;101605.94;5034639;28;19928;-65
2022/06/26 08:51:40;;;;;;;;;;;;;;;26.21;42.41;101616.81;5034527;28;19940;-62
2022/06/26 08:54:06;;;;;;;;;;;;;;;26.05;42.75;101617.13;5037916;28;19917;-64
2022/06/26 08:56:31;;;;;;;;;;;;;;;25.91;42.75;101615.50;5035598;28;19920;-62
2022/06/26 08:58:57;;;;;;;;;;;;;;;26.11;41.83;101620.63;5037886;28;20385;-64
2022/06/26 09:01:22;;;;;;;;;;;;;;;26.70;40.40;101619.47;5036459;28;19925;-63
2022/06/26 09:03:47;;;;;;;;;;;;;;;26.39;41.13;101621.34;5034296;28;20388;-63
2022/06/26 09:06:13;;;;;;;;;;;;;;;26.73;39.63;101616.94;5037433;28;19921;-63
2022/06/26 09:08:43;;;;;;;;;;;;;;;27.02;39.55;101623.94;5036238;28;20425;-65
2022/06/26 09:11:08;;;;;;;;;;;;;;;27.56;38.51;101627.13;5035317;28;19920;-71
2022/06/26 09:13:40;;;;;;;;;;;;;;;27.71;37.37;101626.69;5037749;28;19932;-70
2022/06/26 09:16:06;;;;;;;;;;;;;;;26.81;39.75;101632.72;5032165;28;20308;-70
2022/06/26 09:18:35;;;;;;;;;;;;;;;27.13;39.27;101622.50;5034810;28;19918;-70
2022/06/26 09:21:04;;;;;;;;;;;;;;;26.52;40.07;101632.31;5038697;28;19921;-69
2022/06/26 09:23:30;;;;;;;;;;;;;;;26.37;40.87;101638.22;5034617;28;20467;-71
2022/06/26 09:25:56;;;;;;;;;;;;;;;26.90;40.08;101636.38;5032432;28;19929;-70
2022/06/26 09:28:21;;;;;;;;;;;;;;;26.78;39.58;101627.84;5036108;28;19921;-69
2022/06/26 09:30:51;;;;;;;;;;;;;;;27.14;39.73;101633.25;5037527;28;19921;-71
2022/06/26 09:33:18;;;;;;;;;;;;;;;27.36;40.65;101624.13;5036190;28;19909;-70
2022/06/26 09:35:44;;;;;;;;;;;;;;;27.11;41.46;101625.59;5035648;28;19943;-71
2022/06/26 09:38:09;;;;;;;;;;;;;;;26.78;41.61;101630.59;5034388;28;20396;-70
2022/06/26 09:40:34;;;;;;;;;;;;;;;26.66;42.38;101630.31;5034327;28;19940;-72
2022/06/26 09:42:59;;;;;;;;;;;;;;;27.06;40.68;101628.50;5036566;28;19928;-71
2022/06/26 09:45:25;;;;;;;;;;;;;;;27.07;40.74;101638.41;5034353;28;20008;-72
2022/06/26 09:47:50;;;;;;;;;;;;;;;26.44;42.42;101632.25;5036731;28;19925;-72
2022/06/26 09:50:16;;;;;;;;;;;;;;;27.30;38.44;101631.69;5033586;28;19928;-70
2022/06/26 09:52:42;;;;;;;;;;;;;;;27.45;38.07;101634.09;5030662;28;20416;-71
2022/06/26 09:55:07;;;;;;;;;;;;;;;27.14;38.15;101630.50;5030585;28;19925;-74
2022/06/26 09:57:35;;;;;;;;;;;;;;;27.79;36.90;101619.56;5035318;28;19918;-72
2022/06/26 10:00:01;;;;;;;;;;;;;;;28.44;36.69;101617.53;5032918;28;19913;-73
2022/06/26 10:08:03;;;;;;;;;;;;;;;28.50;36.90;101613.47;5036000;28;19964;-69
2022/06/26 10:10:29;;;;;;;;;;;;;;;28.74;36.35;101617.72;5033516;28;19940;-70
2022/06/26 10:12:56;;;;;;;;;;;;;;;28.47;36.71;101618.84;5038899;28;19925;-69
2022/06/26 10:15:24;;;;;;;;;;;;;;;28.26;36.45;101617.88;5035551;28;19932;-71
2022/06/26 10:18:02;;;;;;;;;;;;;;;28.47;36.34;101611.38;5039576;28;19921;-70
2022/06/26 10:20:28;;;;;;;;;;;;;;;28.62;36.07;101626.66;5034215;28;20021;-69
2022/06/26 10:22:54;;;;;;;;;;;;;;;28.95;34.96;101627.78;5041944;28;19937;-71
2022/06/26 10:25:25;;;;;;;;;;;;;;;29.40;35.42;101622.59;5021297;28;20062;-69
2022/06/26 10:27:51;;;;;;;;;;;;;;;28.93;34.28;101620.94;5038681;28;19964;-72
2022/06/26 10:30:18;;;;;;;;;;;;;;;29.07;34.78;101624.31;5039980;28;19956;-70
2022/06/26 10:32:43;;;;;;;;;;;;;;;29.23;34.70;101629.00;5037823;28;19927;-71
2022/06/26 10:35:09;;;;;;;;;;;;;;;29.55;34.45;101629.50;5040115;28;20016;-70
2022/06/26 10:37:39;;;;;;;;;;;;;;;29.45;34.20;101627.94;5039258;28;19980;-70
2022/06/26 10:40:11;;;;;;;;;;;;;;;29.94;34.09;101626.38;5024198;28;19966;-68
2022/06/26 10:42:54;;;;;;;;;;;;;;;28.99;34.21;101636.22;5039718;28;19929;-69
2022/06/26 10:45:24;;;;;;;;;;;;;;;29.47;33.55;101631.19;5040903;28;19955;-70
2022/06/26 10:47:51;;;;;;;;;;;;;;;29.28;33.86;101619.72;5036838;28;19928;-69
2022/06/26 10:50:35;;;;;;;;;;;;;;;29.24;33.59;101621.50;5040471;28;19925;-70
2022/06/26 10:53:19;;;;;;;;;;;;;;;29.70;33.99;101623.41;5039520;28;19921;-70
2022/06/26 10:55:46;;;;;;;;;;;;;;;28.86;33.91;101629.72;5036147;28;20376;-67
2022/06/26 10:58:28;;;;;;;;;;;;;;;28.76;34.72;101635.59;5039970;28;20000;-69
2022/06/26 11:00:55;;;;;;;;;;;;;;;28.35;35.81;101638.03;5020699;28;20007;-69
2022/06/26 11:03:21;;;;;;;;;;;;;;;28.83;35.13;101641.47;5039032;28;19944;-71
2022/06/26 11:06:02;;;;;;;;;;;;;;;28.79;34.56;101636.91;5039971;28;19948;-70
2022/06/26 11:08:31;;;;;;;;;;;;;;;29.39;34.43;101649.47;5039962;28;20162;-70
2022/06/26 11:11:03;;;;;;;;;;;;;;;29.78;34.81;101653.88;5037981;28;19921;-69
2022/06/26 11:13:29;;;;;;;;;;;;;;;29.90;33.88;101653.97;5016750;28;20396;-71
2022/06/26 11:15:54;;;;;;;;;;;;;;;29.45;34.01;101655.63;5038461;28;19964;-69
2022/06/26 11:18:19;;;;;;;;;;;;;;;29.08;34.42;101659.97;5039635;28;19987;-70
2022/06/26 11:20:53;;;;;;;;;;;;;;;29.26;34.46;101655.22;5038086;28;20031;-70
2022/06/26 11:23:24;;;;;;;;;;;;;;;28.75;34.85;101647.81;5037458;28;19933;-70
2022/06/26 11:25:56;;;;;;;;;;;;;;;29.00;34.45;101648.91;5038518;28;19960;-70
2022/06/26 11:28:31;;;;;;;;;;;;;;;29.38;34.22;101649.81;5039924;28;20551;-70
2022/06/26 11:30:57;;;;;;;;;;;;;;;28.82;34.03;101653.66;5036788;28;19959;-69
2022/06/26 11:33:28;;;;;;;;;;;;;;;29.34;33.61;101646.06;5041455;28;19952;-71
2022/06/26 11:35:54;;;;;;;;;;;;;;;30.18;32.57;101648.72;5029830;28;20349;-70
2022/06/26 11:38:20;;;;;;;;;;;;;;;30.36;32.87;101639.16;5033567;28;20015;-69
2022/06/26 11:40:46;;;;;;;;;;;;;;;30.66;33.27;101639.88;5038527;28;20425;-70
2022/06/26 11:43:12;;;;;;;;;;;;;;;30.38;32.08;101647.13;5037625;28;19925;-68
2022/06/26 11:45:40;;;;;;;;;;;;;;;29.44;33.10;101646.50;5038432;28;21128;-69
2022/06/26 11:48:16;;;;;;;;;;;;;;;29.51;32.83;101651.53;5037267;28;20305;-70
2022/06/26 11:50:41;;;;;;;;;;;;;;;29.06;34.15;101659.47;5030195;28;19925;-70
2022/06/26 11:53:07;;;;;;;;;;;;;;;29.54;33.16;101669.47;5033260;28;19925;-71
2022/06/26 11:55:33;;;;;;;;;;;;;;;29.29;33.90;101660.91;5036817;28;19928;-70
2022/06/26 11:58:01;;;;;;;;;;;;;;;29.37;33.04;101649.00;5019271;28;20504;-69
2022/06/26 12:00:26;;;;;;;;;;;;;;;29.68;32.17;101658.97;5024540;28;19988;-68
2022/06/26 12:02:52;;;;;;;;;;;;;;;29.88;31.99;101663.75;5024197;28;19925;-69
2022/06/26 12:05:30;;;;;;;;;;;;;;;29.58;31.79;101659.34;5024491;28;20420;-70
2022/06/26 12:07:56;;;;;;;;;;;;;;;29.80;32.94;101653.56;5017528;28;19929;-70
2022/06/26 12:10:39;;;;;;;;;;;;;;;30.06;33.02;101656.97;5019901;28;20377;-69
2022/06/26 12:13:04;;;;;;;;;;;;;;;29.56;32.28;101659.69;5026290;28;19944;-69
2022/06/26 12:15:31;;;;;;;;;;;;;;;30.25;32.14;101666.44;5020897;28;19917;-69
2022/06/26 12:17:57;;;;;;;;;;;;;;;30.21;32.91;101662.72;5003110;28;20309;-69
2022/06/26 12:20:22;;;;;;;;;;;;;;;29.42;33.46;101662.63;5023507;28;19925;-69
2022/06/26 12:22:49;;;;;;;;;;;;;;;29.23;34.51;101667.75;5028750;28;20235;-69
2022/06/26 12:25:31;;;;;;;;;;;;;;;29.66;34.01;101659.28;5027345;28;20356;-68
2022/06/26 12:27:57;;;;;;;;;;;;;;;29.45;33.10;101663.94;5028546;28;21022;-68
2022/06/26 12:30:24;;;;;;;;;;;;;;;29.22;33.29;101654.25;5024886;28;20369;-68
2022/06/26 12:32:50;;;;;;;;;;;;;;;29.62;33.55;101663.06;5023962;28;19948;-68
2022/06/26 12:35:15;;;;;;;;;;;;;;;29.94;33.30;101667.97;5025638;28;19932;-68
2022/06/26 12:37:41;;;;;;;;;;;;;;;29.63;33.90;101667.44;5028877;28;19925;-70
2022/06/26 12:40:06;;;;;;;;;;;;;;;29.21;34.05;101672.81;5016846;28;19921;-69
2022/06/26 12:42:32;;;;;;;;;;;;;;;29.52;33.96;101672.56;5026401;28;19927;-69
2022/06/26 12:44:57;;;;;;;;;;;;;;;28.97;34.60;101669.75;5014220;28;20563;-69
2022/06/26 12:47:23;;;;;;;;;;;;;;;29.28;34.75;101675.09;5032624;28;19925;-68